Aeroporto :
LOGIN :

Iscrizione | Disclaimer

   EN    FR    IT 

 










Sommario :    VFR   VFR Marginale   IFR   IFR Intensivo   IFR Molto Intensivo
Visibilità : 
Base nubi : 
>= 8 km
>= 3000ft
5 / 8 km
1000 / 3000 ft
1500m / 5 km
500 / 1000 ft
800 / 1500m
200 / 500 ft
< 800m
< 200 ft
Simboli :   Temporali  Nebbia  Neve Forte  Precipitazioni Forti  Vento > 20 kt
SIGMETs :   Varie  Temporali  Ghiacco  Turbolenza  Onda orograficha  Ceneri Vulcaniche






- Altitudine del aeroporto : 1 ft


EGCK - Caernarfon

ULTIMO METAR :
  • 190350Z AUTO 25019KT 9999 SCT023/// SCT037/// 06/02 Q1018

METARs OBSOLETI :
  • 190320Z AUTO 26019KT 9999 BKN023/// 06/02 Q1018
  • 190250Z AUTO 26017KT 9999 BKN025/// 06/02 Q1018
  • 190220Z AUTO 27018KT 9999 BKN026/// 06/01 Q1018
  • 190150Z AUTO 28020KT 9999 FEW024/// 06/01 Q1018

TAF TAF EGCK
Valido dal 19 a 03 ore il 19 a 12 ore UTC


190158Z 1903/1912 25016KT 9999 SCT030
TEMPO 1909/1912 6000 RA BKN010



MetMap, La meteo Aeronautica in un colpo d'occhio ! - Copyright ORBIFLY Dicembre 2007 - Disclaimer

ORBIFLY MET'MAP TEAM :

Programmazione e sviluppo : Alexandra Zaïnal
Concezione : Baudouin d'Aumeries
Aiuto per la programmazione : Marc-Olivier Méhu
Supporto tecnico e logistico : Manuel Goepfert
Aiuto per la traduzione : Arnaldo La Scala

Contatto : metmap@orbifly.com




FONTI E CREDITI :

   NOAA